createdAt,value
2018-04-30T00:00:49.425Z,94.62
2018-04-30T00:01:52.833Z,94.64
2018-04-30T00:02:56.270Z,94.85
2018-04-30T00:03:59.652Z,94.99
2018-04-30T00:05:03.104Z,95.06
2018-04-30T00:06:06.420Z,94.87
2018-04-30T00:07:09.812Z,94.84
2018-04-30T00:08:14.095Z,94.66
2018-04-30T00:09:18.285Z,94.52
2018-04-30T00:10:21.725Z,94.44
2018-04-30T00:11:25.155Z,94.24
2018-04-30T00:12:28.568Z,94.40
2018-04-30T00:13:32.668Z,94.52
2018-04-30T00:14:36.750Z,94.21
2018-04-30T00:15:40.212Z,94.34
2018-04-30T00:16:43.622Z,94.55
2018-04-30T00:17:47.025Z,94.61
2018-04-30T00:18:51.167Z,94.53
2018-04-30T00:19:55.455Z,94.75
2018-04-30T00:20:59.605Z,94.57
2018-04-30T00:22:02.939Z,94.43
2018-04-30T00:23:06.318Z,94.25
2018-04-30T00:24:09.769Z,94.27
2018-04-30T00:25:13.058Z,94.42
2018-04-30T00:27:19.586Z,94.79
2018-04-30T00:28:22.926Z,94.68
2018-04-30T00:29:26.301Z,94.87
2018-04-30T00:30:29.662Z,94.78
2018-04-30T00:31:33.117Z,94.72
2018-04-30T00:32:36.720Z,94.84
2018-04-30T00:33:40.182Z,94.83
2018-04-30T00:34:43.511Z,94.93
2018-04-30T00:35:46.877Z,94.85
2018-04-30T00:36:50.206Z,94.96
2018-04-30T00:37:53.559Z,94.96
2018-04-30T00:38:56.929Z,95.06
2018-04-30T00:40:00.287Z,95.29
2018-04-30T00:41:03.641Z,95.56
2018-04-30T00:42:06.997Z,95.48
2018-04-30T00:43:10.432Z,95.71
2018-04-30T00:44:13.828Z,96.01
2018-04-30T00:45:17.307Z,96.04
2018-04-30T00:46:21.469Z,96.15
2018-04-30T00:47:24.822Z,96.25
2018-04-30T00:48:28.323Z,96.22
2018-04-30T00:49:31.683Z,96.19
2018-04-30T00:50:35.291Z,96.36
2018-04-30T00:51:38.641Z,96.40
2018-04-30T00:52:42.158Z,96.24
2018-04-30T00:53:46.237Z,96.08
2018-04-30T00:55:01.308Z,96.14
2018-04-30T00:56:05.404Z,96.17
2018-04-30T00:57:08.736Z,95.98
2018-04-30T00:58:12.108Z,95.68
2018-04-30T00:59:15.497Z,95.62
2018-04-30T01:00:18.832Z,95.73
2018-04-30T01:01:22.178Z,95.39
2018-04-30T01:02:25.629Z,95.32
2018-04-30T01:03:29.110Z,95.17
2018-04-30T01:04:32.469Z,95.27
2018-04-30T01:05:35.828Z,95.14
2018-04-30T01:06:39.233Z,94.86
2018-04-30T01:07:42.638Z,94.55
2018-04-30T01:08:45.952Z,94.18
2018-04-30T01:09:50.198Z,93.90
2018-04-30T01:10:53.645Z,94.00
2018-04-30T01:11:57.095Z,94.47
2018-04-30T01:13:00.422Z,94.77
2018-04-30T01:14:04.505Z,94.86
2018-04-30T01:15:07.827Z,94.84
2018-04-30T01:16:11.202Z,94.34
2018-04-30T01:17:15.750Z,93.41
2018-04-30T01:18:19.084Z,93.22
2018-04-30T01:19:22.450Z,93.53
2018-04-30T01:20:26.185Z,93.96
2018-04-30T01:21:29.595Z,94.28
2018-04-30T01:22:33.031Z,94.58
2018-04-30T01:23:36.528Z,94.93
2018-04-30T01:24:40.728Z,95.34
2018-04-30T01:25:46.877Z,95.39
2018-04-30T01:26:50.210Z,95.54
2018-04-30T01:27:53.575Z,95.74
2018-04-30T01:28:56.945Z,95.94
2018-04-30T01:30:01.235Z,95.90
2018-04-30T01:31:04.685Z,95.90
2018-04-30T01:32:08.337Z,95.89
2018-04-30T01:33:12.454Z,96.14
2018-04-30T01:34:16.009Z,96.26
2018-04-30T01:35:19.339Z,96.36
2018-04-30T01:36:22.748Z,96.38
2018-04-30T01:37:26.239Z,96.47
2018-04-30T01:38:30.268Z,96.56
2018-04-30T01:39:33.691Z,96.58
2018-04-30T01:40:37.845Z,96.67
2018-04-30T01:41:41.177Z,96.71
2018-04-30T01:42:45.309Z,96.84
2018-04-30T01:43:48.729Z,96.92
2018-04-30T01:44:52.062Z,96.98
2018-04-30T01:45:55.427Z,97.06
2018-04-30T01:46:59.576Z,97.17
2018-04-30T01:48:03.058Z,97.31
2018-04-30T01:49:06.505Z,97.40
2018-04-30T01:50:10.717Z,97.54
2018-04-30T01:51:15.088Z,97.59
2018-04-30T01:52:18.448Z,97.58
2018-04-30T01:53:21.824Z,97.63
2018-04-30T01:54:25.193Z,97.69
2018-04-30T01:55:28.568Z,97.68
2018-04-30T01:56:32.713Z,97.68
2018-04-30T01:57:36.098Z,97.61
2018-04-30T01:58:40.363Z,97.58
2018-04-30T01:59:44.514Z,97.56
2018-04-30T02:00:47.830Z,97.59
2018-04-30T02:01:51.183Z,97.62
2018-04-30T02:02:54.574Z,97.64
2018-04-30T02:03:58.032Z,97.66
2018-04-30T02:05:01.407Z,97.69
2018-04-30T02:06:04.911Z,97.74
2018-04-30T02:07:08.332Z,97.79
2018-04-30T02:08:11.753Z,97.86
2018-04-30T02:09:15.098Z,97.92
2018-04-30T02:10:18.435Z,97.99
2018-04-30T02:11:21.891Z,98.08
2018-04-30T02:12:25.224Z,98.08
2018-04-30T02:13:28.535Z,98.12
2018-04-30T02:14:31.904Z,98.20
2018-04-30T02:15:35.326Z,98.26
2018-04-30T02:16:38.782Z,98.30
2018-04-30T02:17:42.098Z,98.35
2018-04-30T02:18:45.489Z,98.38
2018-04-30T02:19:48.866Z,98.43
2018-04-30T02:20:52.266Z,98.42
2018-04-30T02:21:55.691Z,98.45
2018-04-30T02:22:59.047Z,98.48
2018-04-30T02:24:02.389Z,98.48
2018-04-30T02:25:05.862Z,98.46
2018-04-30T02:26:09.247Z,98.48
2018-04-30T02:27:13.521Z,98.48
2018-04-30T02:28:18.417Z,98.47
2018-04-30T02:29:21.806Z,98.50
2018-04-30T02:31:38.916Z,98.52
2018-04-30T02:32:43.241Z,98.47
2018-04-30T02:33:46.648Z,98.41
2018-04-30T02:34:50.029Z,98.34
2018-04-30T02:35:53.402Z,98.25
2018-04-30T02:36:56.779Z,98.06
2018-04-30T02:38:00.935Z,97.95
2018-04-30T02:39:05.346Z,97.63
2018-04-30T02:40:08.779Z,97.39
2018-04-30T02:41:12.185Z,97.08
2018-04-30T02:42:15.596Z,96.75
2018-04-30T02:43:19.799Z,96.43
2018-04-30T02:44:23.117Z,96.05
2018-04-30T02:45:26.530Z,94.74
2018-04-30T02:46:30.184Z,94.40
2018-04-30T02:47:33.602Z,94.21
2018-04-30T02:48:36.938Z,93.09
2018-04-30T02:49:40.356Z,92.99
2018-04-30T02:50:43.935Z,93.31
2018-04-30T02:51:47.314Z,93.69
2018-04-30T02:52:50.932Z,93.74
2018-04-30T02:53:54.327Z,93.62
2018-04-30T02:56:15.349Z,91.17
2018-04-30T02:57:18.740Z,91.67
2018-04-30T02:58:22.970Z,92.03
2018-04-30T02:59:26.520Z,92.52
2018-04-30T03:00:29.959Z,92.12
2018-04-30T03:01:33.445Z,91.16
2018-04-30T03:02:36.903Z,91.53
2018-04-30T03:03:40.307Z,92.11
2018-04-30T03:04:44.455Z,91.73
2018-04-30T03:05:47.834Z,92.05
2018-04-30T03:06:51.157Z,92.43
2018-04-30T03:07:54.475Z,92.32
2018-04-30T03:08:57.843Z,92.68
2018-04-30T03:10:01.985Z,91.45
2018-04-30T03:11:05.307Z,91.58
2018-04-30T03:12:08.699Z,91.69
2018-04-30T03:13:12.131Z,92.12
2018-04-30T03:14:15.517Z,92.43
2018-04-30T03:15:18.867Z,92.55
2018-04-30T03:16:22.223Z,92.52
2018-04-30T03:17:25.624Z,91.82
2018-04-30T03:18:29.022Z,91.87
2018-04-30T03:19:32.602Z,92.26
2018-04-30T03:20:35.971Z,92.46
2018-04-30T03:21:39.264Z,92.35
2018-04-30T03:22:42.586Z,92.47
2018-04-30T03:23:46.933Z,92.44
2018-04-30T03:24:50.370Z,92.76
2018-04-30T03:25:53.750Z,93.07
2018-04-30T03:26:57.173Z,93.08
2018-04-30T03:28:02.144Z,92.91
2018-04-30T03:29:05.465Z,92.89
2018-04-30T03:30:08.835Z,93.00
2018-04-30T03:31:12.233Z,93.35
2018-04-30T03:32:15.650Z,93.41
2018-04-30T03:33:19.036Z,93.10
2018-04-30T03:34:22.407Z,92.78
2018-04-30T03:35:25.951Z,92.90
2018-04-30T03:36:29.270Z,93.07
2018-04-30T03:37:32.690Z,93.13
2018-04-30T03:38:36.027Z,93.14
2018-04-30T03:39:40.339Z,93.33
2018-04-30T03:40:44.468Z,93.15
2018-04-30T03:41:47.802Z,92.93
2018-04-30T03:42:52.033Z,93.03
2018-04-30T03:43:56.104Z,93.17
2018-04-30T03:44:59.457Z,93.09
2018-04-30T03:46:02.816Z,92.77
2018-04-30T03:47:06.939Z,92.51
2018-04-30T03:48:10.311Z,92.44
2018-04-30T03:49:13.646Z,92.42
2018-04-30T03:50:16.983Z,92.22
2018-04-30T03:51:20.413Z,92.28
2018-04-30T03:52:23.858Z,92.37
2018-04-30T03:53:27.214Z,91.37
2018-04-30T03:54:31.365Z,90.54
2018-04-30T03:55:46.424Z,90.68
2018-04-30T03:56:50.656Z,90.92
2018-04-30T03:57:54.313Z,90.67
2018-04-30T03:58:57.766Z,90.79
2018-04-30T04:00:01.166Z,91.28
2018-04-30T04:01:22.660Z,91.53
2018-04-30T04:02:43.574Z,91.92
2018-04-30T04:04:05.166Z,92.34
2018-04-30T04:05:26.108Z,91.85
2018-04-30T04:08:11.190Z,92.08
2018-04-30T04:09:14.515Z,92.52
2018-04-30T04:10:17.883Z,92.61
2018-04-30T04:11:21.367Z,92.48
2018-04-30T04:12:24.708Z,92.42
2018-04-30T04:13:28.101Z,92.55
2018-04-30T04:14:31.578Z,92.80
2018-04-30T04:15:34.981Z,93.09
2018-04-30T04:16:38.356Z,93.21
2018-04-30T04:17:42.491Z,93.16
2018-04-30T04:18:45.811Z,93.16
2018-04-30T04:19:49.140Z,93.09
2018-04-30T04:20:52.508Z,93.13
2018-04-30T04:21:55.935Z,92.62
2018-04-30T04:22:59.187Z,92.64
2018-04-30T04:24:02.555Z,92.62
2018-04-30T04:25:06.641Z,92.78
2018-04-30T04:26:10.030Z,92.94
2018-04-30T04:27:14.163Z,93.17
2018-04-30T04:28:17.493Z,93.12
2018-04-30T04:29:20.863Z,93.08
2018-04-30T04:30:24.364Z,92.90
2018-04-30T04:31:27.701Z,92.81
2018-04-30T04:32:31.163Z,92.71
2018-04-30T04:33:34.619Z,92.72
2018-04-30T04:34:37.954Z,92.66
2018-04-30T04:35:41.380Z,91.80
2018-04-30T04:36:44.720Z,91.50
2018-04-30T04:37:48.067Z,91.69
2018-04-30T04:38:51.371Z,91.83
2018-04-30T04:39:55.402Z,91.00
2018-04-30T04:40:59.572Z,90.95
2018-04-30T04:42:03.100Z,91.07
2018-04-30T04:43:06.537Z,91.15
2018-04-30T04:44:10.033Z,91.12
2018-04-30T04:45:13.505Z,90.97
2018-04-30T04:46:16.871Z,90.76
2018-04-30T04:47:20.593Z,90.93
2018-04-30T04:48:23.963Z,91.23
2018-04-30T04:49:27.296Z,90.98
2018-04-30T04:50:30.702Z,90.27
2018-04-30T04:51:34.168Z,89.47
2018-04-30T04:52:38.335Z,89.81
2018-04-30T04:53:41.634Z,90.13
2018-04-30T04:54:45.148Z,90.50
2018-04-30T04:55:48.624Z,90.81
2018-04-30T04:56:51.984Z,91.05
2018-04-30T04:57:55.333Z,91.05
2018-04-30T04:58:58.731Z,90.75
2018-04-30T05:00:02.062Z,90.55
2018-04-30T05:01:05.525Z,90.21
2018-04-30T05:02:09.730Z,90.26
2018-04-30T05:03:13.049Z,90.31
2018-04-30T05:04:17.192Z,90.68
2018-04-30T05:05:20.557Z,90.07
2018-04-30T05:06:23.931Z,90.33
2018-04-30T05:07:27.229Z,90.68
2018-04-30T05:08:30.555Z,90.72
2018-04-30T05:09:33.955Z,91.20
2018-04-30T05:10:38.146Z,90.62
2018-04-30T05:11:41.480Z,90.51
2018-04-30T05:12:44.911Z,90.47
2018-04-30T05:13:48.545Z,90.52
2018-04-30T05:14:51.861Z,90.88
2018-04-30T05:15:56.026Z,90.71
2018-04-30T05:16:59.375Z,90.86
2018-04-30T05:18:03.021Z,90.63
2018-04-30T05:19:06.365Z,90.26
2018-04-30T05:20:09.765Z,90.12
2018-04-30T05:21:13.171Z,90.29
2018-04-30T05:22:16.567Z,89.74
2018-04-30T05:23:19.980Z,87.80
2018-04-30T05:24:23.403Z,87.23
2018-04-30T05:25:26.714Z,86.64
2018-04-30T05:26:30.019Z,86.25
2018-04-30T05:27:33.365Z,86.93
2018-04-30T05:28:36.742Z,86.17
2018-04-30T05:29:40.081Z,86.05
2018-04-30T05:30:43.477Z,86.58
2018-04-30T05:31:47.118Z,86.02
2018-04-30T05:32:50.454Z,86.21
2018-04-30T05:33:53.832Z,86.02
2018-04-30T05:34:57.092Z,86.15
2018-04-30T05:36:00.400Z,86.24
2018-04-30T05:37:04.537Z,87.22
2018-04-30T05:38:07.976Z,87.21
2018-04-30T05:39:11.288Z,87.00
2018-04-30T05:40:14.706Z,87.21
2018-04-30T05:41:18.097Z,87.73
2018-04-30T05:42:21.439Z,88.16
2018-04-30T05:43:25.008Z,88.69
2018-04-30T05:44:29.143Z,88.62
2018-04-30T05:45:32.539Z,88.00
2018-04-30T05:46:35.927Z,88.20
2018-04-30T05:47:39.250Z,88.61
2018-04-30T05:48:42.567Z,88.58
2018-04-30T05:50:57.770Z,89.10
2018-04-30T05:52:01.170Z,89.11
2018-04-30T05:53:04.484Z,89.25
2018-04-30T05:54:07.840Z,87.73
2018-04-30T05:55:11.191Z,87.58
2018-04-30T05:56:14.520Z,88.36
2018-04-30T05:57:17.916Z,88.34
2018-04-30T05:58:21.298Z,88.44
2018-04-30T05:59:24.679Z,88.10
2018-04-30T06:00:28.293Z,88.49
2018-04-30T06:01:31.659Z,88.08
2018-04-30T06:02:35.016Z,87.77
2018-04-30T06:03:38.376Z,87.81
2018-04-30T06:04:41.777Z,87.83
2018-04-30T06:05:45.115Z,87.79
2018-04-30T06:06:48.614Z,87.49
2018-04-30T06:07:51.863Z,86.46
2018-04-30T06:08:55.179Z,86.69
2018-04-30T06:09:58.487Z,87.01
2018-04-30T06:11:01.962Z,86.89
2018-04-30T06:12:05.346Z,86.83
2018-04-30T06:13:08.659Z,86.33
2018-04-30T06:14:11.981Z,86.06
2018-04-30T06:15:15.440Z,86.32
2018-04-30T06:16:18.731Z,86.03
2018-04-30T06:17:22.115Z,86.47
2018-04-30T06:18:25.437Z,84.92
2018-04-30T06:19:28.769Z,85.32
2018-04-30T06:20:32.115Z,85.89
2018-04-30T06:21:35.418Z,86.26
2018-04-30T06:22:39.502Z,86.40
2018-04-30T06:23:42.804Z,86.70
2018-04-30T06:24:46.109Z,86.95
2018-04-30T06:25:49.482Z,87.00
2018-04-30T06:26:52.875Z,86.70
2018-04-30T06:27:56.197Z,86.87
2018-04-30T06:28:59.681Z,86.73
2018-04-30T06:30:03.008Z,86.77
2018-04-30T06:31:06.332Z,87.04
2018-04-30T06:32:09.652Z,87.13
2018-04-30T06:33:13.027Z,86.46
2018-04-30T06:34:16.321Z,85.72
2018-04-30T06:35:19.647Z,85.66
2018-04-30T06:36:22.994Z,85.18
2018-04-30T06:37:26.303Z,85.08
2018-04-30T06:38:29.689Z,84.85
2018-04-30T06:39:33.043Z,84.67
2018-04-30T06:40:36.417Z,84.56
2018-04-30T06:41:39.740Z,84.73
2018-04-30T06:42:43.060Z,84.64
2018-04-30T06:43:46.437Z,85.00
2018-04-30T06:44:49.805Z,84.93
2018-04-30T06:45:53.303Z,84.93
2018-04-30T06:46:57.093Z,85.16
2018-04-30T06:48:01.487Z,85.14
2018-04-30T06:49:04.898Z,85.08
2018-04-30T06:50:08.297Z,84.32
2018-04-30T06:51:11.930Z,84.60
2018-04-30T06:52:15.273Z,84.55
2018-04-30T06:53:18.601Z,84.24
2018-04-30T06:54:22.123Z,84.38
2018-04-30T06:55:25.568Z,84.36
2018-04-30T06:56:29.120Z,83.48
2018-04-30T06:57:32.716Z,83.77
2018-04-30T06:58:36.080Z,83.96
2018-04-30T06:59:39.579Z,84.00
2018-04-30T07:00:42.900Z,83.97
2018-04-30T07:01:46.208Z,83.85
2018-04-30T07:02:49.840Z,83.93
2018-04-30T07:03:54.052Z,84.07
2018-04-30T07:04:57.448Z,83.49
2018-04-30T07:06:00.973Z,82.87
2018-04-30T07:07:04.779Z,83.08
2018-04-30T07:08:08.427Z,83.24
2018-04-30T07:09:12.078Z,83.30
2018-04-30T07:10:15.745Z,83.41
2018-04-30T07:11:19.585Z,83.37
2018-04-30T07:12:24.136Z,83.84
2018-04-30T07:13:27.507Z,83.84
2018-04-30T07:14:30.837Z,84.18
2018-04-30T07:15:34.162Z,84.54
2018-04-30T07:16:37.533Z,84.67
2018-04-30T07:17:40.820Z,84.12
2018-04-30T07:18:44.157Z,83.53
2018-04-30T07:19:47.483Z,83.59
2018-04-30T07:20:50.791Z,83.57
2018-04-30T07:21:54.898Z,83.56
2018-04-30T07:22:58.253Z,83.69
2018-04-30T07:24:01.610Z,83.61
2018-04-30T07:25:04.984Z,83.77
2018-04-30T07:26:08.652Z,84.15
2018-04-30T07:27:11.979Z,84.23
2018-04-30T07:28:15.328Z,84.19
2018-04-30T07:29:18.640Z,84.38
2018-04-30T07:30:22.030Z,84.77
2018-04-30T07:31:25.332Z,84.94
2018-04-30T07:32:29.566Z,84.76
2018-04-30T07:33:33.646Z,84.71
2018-04-30T07:34:36.995Z,84.86
2018-04-30T07:35:40.307Z,85.09
2018-04-30T07:36:43.603Z,85.06
2018-04-30T07:37:46.991Z,84.85
2018-04-30T07:38:50.344Z,84.62
2018-04-30T07:39:53.684Z,84.69
2018-04-30T07:40:57.023Z,84.03
2018-04-30T07:42:00.337Z,84.13
2018-04-30T07:43:03.685Z,84.30
2018-04-30T07:44:07.367Z,84.27
2018-04-30T07:45:11.108Z,84.32
2018-04-30T07:46:14.432Z,84.61
2018-04-30T07:47:17.772Z,84.64
2018-04-30T07:48:21.080Z,84.37
2018-04-30T07:49:24.519Z,84.23
2018-04-30T07:50:28.019Z,84.38
2018-04-30T07:51:31.326Z,83.37
2018-04-30T07:52:34.634Z,83.90
2018-04-30T07:53:37.962Z,84.29
2018-04-30T07:54:41.276Z,83.42
2018-04-30T07:55:44.607Z,83.42
2018-04-30T07:56:47.968Z,83.36
2018-04-30T07:57:51.299Z,82.45
2018-04-30T07:58:54.635Z,82.76
2018-04-30T07:59:57.971Z,82.72
2018-04-30T08:01:01.381Z,83.07
2018-04-30T08:02:04.698Z,83.09
2018-04-30T08:03:08.059Z,83.53
2018-04-30T08:04:11.344Z,83.86
2018-04-30T08:05:15.668Z,83.84
2018-04-30T08:06:19.110Z,84.02
2018-04-30T08:07:22.441Z,83.69
2018-04-30T08:08:25.777Z,83.34
2018-04-30T08:09:29.112Z,83.17
2018-04-30T08:10:32.430Z,83.09
2018-04-30T08:11:35.784Z,82.79
2018-04-30T08:12:39.137Z,83.26
2018-04-30T08:13:42.491Z,83.20
2018-04-30T08:14:45.822Z,82.82
2018-04-30T08:15:49.177Z,82.76
2018-04-30T08:16:52.487Z,82.49
2018-04-30T08:17:55.972Z,82.11
2018-04-30T08:19:00.069Z,81.62
2018-04-30T08:20:03.385Z,81.65
2018-04-30T08:21:06.746Z,81.80
2018-04-30T08:22:10.148Z,81.45
2018-04-30T08:23:13.470Z,81.49
2018-04-30T08:24:16.790Z,80.74
2018-04-30T08:25:20.098Z,80.19
2018-04-30T08:26:24.198Z,79.87
2018-04-30T08:27:27.538Z,79.88
2018-04-30T08:28:30.873Z,79.27
2018-04-30T08:29:34.975Z,79.43
2018-04-30T08:30:38.577Z,79.96
2018-04-30T08:31:42.829Z,79.32
2018-04-30T08:32:46.344Z,78.42
2018-04-30T08:33:49.661Z,78.48
2018-04-30T08:34:53.096Z,78.88
2018-04-30T08:35:56.408Z,78.48
2018-04-30T08:37:00.510Z,78.31
2018-04-30T08:38:03.833Z,78.09
2018-04-30T08:39:07.162Z,78.68
2018-04-30T08:40:10.481Z,78.97
2018-04-30T08:41:13.867Z,78.82
2018-04-30T08:42:17.959Z,77.70
2018-04-30T08:43:21.270Z,78.36
2018-04-30T08:44:24.622Z,79.00
2018-04-30T08:45:27.943Z,78.97
2018-04-30T08:46:31.246Z,78.12
2018-04-30T08:47:34.563Z,78.48
2018-04-30T08:48:37.904Z,78.25
2018-04-30T08:49:41.234Z,78.43
2018-04-30T08:50:44.570Z,78.19
2018-04-30T08:51:47.925Z,77.56
2018-04-30T08:52:51.231Z,78.47
2018-04-30T08:53:54.629Z,78.52
2018-04-30T08:54:58.049Z,78.16
2018-04-30T08:56:01.369Z,77.67
2018-04-30T08:57:04.686Z,77.36
2018-04-30T08:58:08.816Z,77.08
2018-04-30T08:59:12.207Z,77.15
2018-04-30T09:00:15.654Z,76.12
2018-04-30T09:01:18.953Z,76.36
2018-04-30T09:02:22.276Z,76.24
2018-04-30T09:03:25.598Z,75.57
2018-04-30T09:04:29.705Z,75.22
2018-04-30T09:05:33.123Z,75.67
2018-04-30T09:06:36.473Z,75.54
2018-04-30T09:07:40.571Z,74.70
2018-04-30T09:08:43.990Z,75.09
2018-04-30T09:09:47.373Z,72.93
2018-04-30T09:10:51.425Z,72.90
2018-04-30T09:11:54.800Z,71.73
2018-04-30T09:12:58.098Z,71.37
2018-04-30T09:14:01.531Z,71.41
2018-04-30T09:15:05.832Z,70.98
2018-04-30T09:16:09.917Z,70.21
2018-04-30T09:17:13.312Z,69.71
2018-04-30T09:18:16.669Z,69.32
2018-04-30T09:19:20.012Z,69.11
2018-04-30T09:20:23.411Z,69.46
2018-04-30T09:21:26.724Z,69.80
2018-04-30T09:22:30.040Z,69.98
2018-04-30T09:23:33.366Z,69.28
2018-04-30T09:24:36.674Z,69.62
2018-04-30T09:25:39.992Z,70.72
2018-04-30T09:26:43.310Z,69.49
2018-04-30T09:27:46.605Z,68.61
2018-04-30T09:28:49.902Z,68.55
2018-04-30T09:29:53.266Z,68.43
2018-04-30T09:30:56.662Z,67.86
2018-04-30T09:32:00.046Z,66.97
2018-04-30T09:33:03.360Z,66.60
2018-04-30T09:34:06.711Z,66.49
2018-04-30T09:35:10.079Z,66.42
2018-04-30T09:36:13.432Z,66.24
2018-04-30T09:37:17.512Z,65.15
2018-04-30T09:38:20.805Z,65.25
2018-04-30T09:39:24.184Z,63.64
2018-04-30T09:40:27.513Z,64.47
2018-04-30T09:41:30.852Z,64.09
2018-04-30T09:42:34.190Z,63.44
2018-04-30T09:43:37.596Z,62.88
2018-04-30T09:44:40.934Z,63.00
2018-04-30T09:45:45.499Z,62.18
2018-04-30T09:46:48.848Z,62.05
2018-04-30T09:47:52.180Z,62.76
2018-04-30T09:48:55.530Z,63.26
2018-04-30T09:49:58.823Z,61.64
2018-04-30T09:51:02.122Z,61.63
2018-04-30T09:52:05.456Z,60.65
2018-04-30T09:53:08.833Z,60.66
2018-04-30T09:54:12.133Z,59.74
2018-04-30T09:55:15.461Z,59.42
2018-04-30T09:56:18.760Z,59.31
2018-04-30T09:57:22.171Z,58.46
2018-04-30T09:58:25.531Z,58.60
2018-04-30T09:59:28.916Z,58.24
2018-04-30T10:00:32.254Z,57.75
2018-04-30T10:01:35.572Z,58.40
2018-04-30T10:02:38.882Z,58.70
2018-04-30T10:03:42.341Z,58.74
2018-04-30T10:04:45.686Z,59.34
2018-04-30T10:05:49.826Z,58.48
2018-04-30T10:06:53.149Z,57.76
2018-04-30T10:07:57.246Z,58.29
2018-04-30T10:09:00.584Z,58.75
2018-04-30T10:10:03.903Z,57.88
2018-04-30T10:11:07.214Z,57.45
2018-04-30T10:12:11.497Z,57.27
2018-04-30T10:13:14.940Z,55.91
2018-04-30T10:14:18.308Z,56.17
2018-04-30T10:15:22.388Z,55.57
2018-04-30T10:16:25.761Z,55.00
2018-04-30T10:17:29.075Z,55.14
2018-04-30T10:18:33.167Z,54.36
2018-04-30T10:19:37.321Z,54.60
2018-04-30T10:20:40.637Z,54.34
2018-04-30T10:21:43.960Z,53.82
2018-04-30T10:22:47.313Z,54.06
2018-04-30T10:23:50.788Z,54.79
2018-04-30T10:24:54.045Z,55.17
2018-04-30T10:25:57.467Z,55.12
2018-04-30T10:27:00.805Z,54.19
2018-04-30T10:28:06.450Z,53.17
2018-04-30T10:29:09.919Z,53.78
2018-04-30T10:30:13.971Z,53.75
2018-04-30T10:31:17.311Z,52.89
2018-04-30T10:32:21.228Z,52.66
2018-04-30T10:33:25.709Z,52.26
2018-04-30T10:34:30.385Z,53.32
2018-04-30T10:35:33.720Z,53.38
2018-04-30T10:36:37.052Z,53.73
2018-04-30T10:37:40.462Z,53.60
2018-04-30T10:38:43.846Z,54.11
2018-04-30T10:39:47.190Z,54.24
2018-04-30T10:40:50.505Z,54.08
2018-04-30T10:41:53.818Z,54.18
2018-04-30T10:42:57.905Z,54.49
2018-04-30T10:44:01.241Z,54.62
2018-04-30T10:45:04.607Z,53.94
2018-04-30T10:46:07.977Z,54.60
2018-04-30T10:47:11.296Z,54.97
2018-04-30T10:48:14.648Z,55.38
2018-04-30T10:49:18.737Z,55.44
2018-04-30T10:50:22.245Z,55.54
2018-04-30T10:51:25.631Z,56.12
2018-04-30T10:52:28.998Z,55.88
2018-04-30T10:53:32.465Z,55.99
2018-04-30T10:54:35.850Z,56.08
2018-04-30T10:55:39.217Z,56.19
2018-04-30T10:56:42.585Z,56.61
2018-04-30T10:57:45.977Z,56.23
2018-04-30T10:58:49.483Z,56.30
2018-04-30T10:59:53.425Z,56.06
2018-04-30T11:00:56.958Z,55.68
2018-04-30T11:02:00.489Z,56.34
2018-04-30T11:03:05.245Z,55.85
2018-04-30T11:04:10.577Z,55.41
2018-04-30T11:05:14.028Z,55.28
2018-04-30T11:06:17.341Z,54.81
2018-04-30T11:07:20.699Z,54.83
2018-04-30T11:08:24.019Z,55.43
2018-04-30T11:09:27.319Z,55.31
2018-04-30T11:10:30.682Z,55.72
2018-04-30T11:12:43.625Z,56.44
2018-04-30T11:13:47.008Z,56.56
2018-04-30T11:14:50.342Z,56.65
2018-04-30T11:15:53.656Z,56.18
2018-04-30T11:16:56.996Z,56.10
2018-04-30T11:18:00.322Z,56.33
2018-04-30T11:19:03.750Z,56.05
2018-04-30T11:20:07.090Z,56.38
2018-04-30T11:21:11.206Z,55.53
2018-04-30T11:22:14.565Z,55.89
2018-04-30T11:23:19.553Z,56.07
2018-04-30T11:24:22.854Z,55.67
2018-04-30T11:25:26.184Z,55.70
2018-04-30T11:26:29.529Z,55.79
2018-04-30T11:27:32.861Z,54.34
2018-04-30T11:28:36.227Z,53.66
2018-04-30T11:29:40.344Z,53.34
2018-04-30T11:30:43.648Z,53.32
2018-04-30T11:31:47.008Z,52.14
2018-04-30T11:32:50.504Z,52.01
2018-04-30T11:33:53.847Z,52.39
2018-04-30T11:34:57.255Z,51.88
2018-04-30T11:36:00.684Z,51.53
2018-04-30T11:37:04.140Z,51.27
2018-04-30T11:38:07.537Z,51.53
2018-04-30T11:39:10.939Z,51.72
2018-04-30T11:40:14.445Z,50.52
2018-04-30T11:41:17.926Z,50.87
2018-04-30T11:42:21.339Z,50.47
2018-04-30T11:43:24.894Z,49.75
2018-04-30T11:44:29.921Z,49.69
2018-04-30T11:45:37.463Z,50.08
2018-04-30T11:46:41.256Z,50.16
2018-04-30T11:47:45.076Z,50.30
2018-04-30T11:48:51.027Z,50.12
2018-04-30T11:49:54.347Z,50.46
2018-04-30T11:50:57.678Z,50.23
2018-04-30T11:52:01.068Z,50.35
2018-04-30T11:53:04.632Z,49.90
2018-04-30T11:54:08.018Z,49.59
2018-04-30T11:55:12.173Z,49.97
2018-04-30T11:56:15.767Z,49.55
2018-04-30T11:57:19.516Z,49.58
2018-04-30T11:58:23.195Z,49.56
2018-04-30T11:59:26.531Z,50.00
2018-04-30T12:00:29.860Z,49.06
2018-04-30T12:01:33.192Z,48.52
2018-04-30T12:02:36.660Z,48.35
2018-04-30T12:03:40.782Z,49.06
2018-04-30T12:04:44.247Z,48.85
2018-04-30T12:05:47.614Z,48.13
2018-04-30T12:06:51.737Z,47.83
2018-04-30T12:07:55.934Z,48.14
2018-04-30T12:08:59.286Z,48.22
2018-04-30T12:10:02.627Z,47.92
2018-04-30T12:11:06.148Z,48.16
2018-04-30T12:12:09.497Z,48.73
2018-04-30T12:13:12.983Z,48.93
2018-04-30T12:14:16.358Z,48.93
2018-04-30T12:15:19.894Z,49.48
2018-04-30T12:16:23.250Z,50.20
2018-04-30T12:17:26.728Z,51.25
2018-04-30T12:18:30.539Z,52.38
2018-04-30T12:19:34.212Z,53.72
2018-04-30T12:20:37.747Z,55.18
2018-04-30T12:21:41.079Z,56.25
2018-04-30T12:22:44.478Z,57.19
2018-04-30T12:23:47.851Z,58.39
2018-04-30T12:24:51.186Z,58.67
2018-04-30T12:25:54.862Z,59.99
2018-04-30T12:26:58.215Z,60.59
2018-04-30T12:28:01.608Z,60.27
2018-04-30T12:29:05.741Z,60.92
2018-04-30T12:30:09.083Z,61.05
2018-04-30T12:31:12.492Z,60.80
2018-04-30T12:32:15.837Z,61.37
2018-04-30T12:33:19.191Z,61.40
2018-04-30T12:34:22.593Z,62.26
2018-04-30T12:35:25.977Z,62.02
2018-04-30T12:36:29.415Z,61.86
2018-04-30T12:37:33.655Z,61.79
2018-04-30T12:38:37.055Z,61.52
2018-04-30T12:39:40.432Z,62.09
2018-04-30T12:40:43.841Z,62.19
2018-04-30T12:41:47.197Z,62.40
2018-04-30T12:42:50.606Z,62.26
2018-04-30T12:43:53.987Z,62.55
2018-04-30T12:44:57.366Z,62.68
2018-04-30T12:46:00.739Z,62.95
2018-04-30T12:47:04.171Z,62.07
2018-04-30T12:48:07.571Z,61.65
2018-04-30T12:49:11.707Z,61.82
2018-04-30T12:50:15.099Z,61.42
2018-04-30T12:51:18.799Z,60.93
2018-04-30T12:52:22.272Z,62.25
2018-04-30T12:53:25.630Z,63.39
2018-04-30T12:54:29.064Z,64.10
2018-04-30T12:55:32.401Z,65.29
2018-04-30T12:56:35.760Z,65.53
2018-04-30T12:57:39.247Z,66.45
2018-04-30T12:58:42.554Z,66.53
2018-04-30T12:59:46.452Z,67.10
2018-04-30T13:00:49.831Z,66.86
2018-04-30T13:01:53.220Z,66.73
2018-04-30T13:02:56.671Z,65.99
2018-04-30T13:04:00.029Z,65.52
2018-04-30T13:05:03.477Z,65.46
2018-04-30T13:06:06.808Z,64.70
2018-04-30T13:07:10.405Z,64.38
2018-04-30T13:08:13.935Z,63.57
2018-04-30T13:09:17.303Z,63.65
2018-04-30T13:10:20.626Z,63.66
2018-04-30T13:11:24.832Z,63.30
2018-04-30T13:12:28.299Z,63.16
2018-04-30T13:13:31.796Z,61.08
2018-04-30T13:14:35.246Z,60.51
2018-04-30T13:15:38.589Z,60.20
2018-04-30T13:16:42.700Z,60.02
2018-04-30T13:17:46.020Z,59.76
2018-04-30T13:18:53.379Z,59.87
2018-04-30T13:19:57.711Z,59.18
2018-04-30T13:21:01.052Z,58.62
2018-04-30T13:22:05.157Z,57.76
2018-04-30T13:23:08.578Z,57.06
2018-04-30T13:24:12.468Z,56.72
2018-04-30T13:25:15.817Z,55.58
2018-04-30T13:26:19.210Z,55.47
2018-04-30T13:27:22.631Z,54.56
2018-04-30T13:28:26.108Z,54.60
2018-04-30T13:29:29.657Z,54.30
2018-04-30T13:30:32.997Z,55.21
2018-04-30T13:31:36.679Z,55.38
2018-04-30T13:32:40.006Z,54.92
2018-04-30T13:33:43.688Z,55.61
2018-04-30T13:34:47.070Z,56.67
2018-04-30T13:36:05.108Z,57.78
2018-04-30T13:37:08.461Z,60.47
2018-04-30T13:38:11.799Z,62.92
2018-04-30T13:39:15.973Z,63.39
2018-04-30T13:40:20.072Z,63.95
2018-04-30T13:41:23.429Z,64.97
2018-04-30T13:42:26.747Z,66.14
2018-04-30T13:43:30.322Z,66.52
2018-04-30T13:44:33.694Z,66.99
2018-04-30T13:45:37.800Z,66.29
2018-04-30T13:46:41.864Z,64.70
2018-04-30T13:47:45.208Z,64.09